sensor_id;sensor_type;location;lat;lon;timestamp;temperature;humidity
10802;DHT22;5453;50.852;7.102;2023-07-31T00:00:30;18.80;99.90
10802;DHT22;5453;50.852;7.102;2023-07-31T00:03:02;18.80;99.90
10802;DHT22;5453;50.852;7.102;2023-07-31T00:05:35;18.80;99.90
10802;DHT22;5453;50.852;7.102;2023-07-31T00:08:07;18.80;99.90
10802;DHT22;5453;50.852;7.102;2023-07-31T00:10:41;18.80;99.90
10802;DHT22;5453;50.852;7.102;2023-07-31T00:13:16;18.80;99.90
10802;DHT22;5453;50.852;7.102;2023-07-31T00:15:48;18.80;99.90
10802;DHT22;5453;50.852;7.102;2023-07-31T00:18:21;18.80;99.90
10802;DHT22;5453;50.852;7.102;2023-07-31T00:20:53;18.80;99.90
10802;DHT22;5453;50.852;7.102;2023-07-31T00:23:29;18.80;99.90
10802;DHT22;5453;50.852;7.102;2023-07-31T00:26:02;18.80;99.90
10802;DHT22;5453;50.852;7.102;2023-07-31T00:28:34;18.80;99.90
10802;DHT22;5453;50.852;7.102;2023-07-31T00:31:07;18.80;99.90
10802;DHT22;5453;50.852;7.102;2023-07-31T00:33:42;18.80;99.90
10802;DHT22;5453;50.852;7.102;2023-07-31T00:36:14;18.80;99.90
10802;DHT22;5453;50.852;7.102;2023-07-31T00:38:48;18.80;99.90
10802;DHT22;5453;50.852;7.102;2023-07-31T00:41:22;18.80;99.90
10802;DHT22;5453;50.852;7.102;2023-07-31T00:43:54;18.80;99.90
10802;DHT22;5453;50.852;7.102;2023-07-31T00:46:27;18.80;99.90
10802;DHT22;5453;50.852;7.102;2023-07-31T00:49:00;18.80;99.90
10802;DHT22;5453;50.852;7.102;2023-07-31T00:51:33;18.80;99.90
10802;DHT22;5453;50.852;7.102;2023-07-31T00:54:06;18.80;99.90
10802;DHT22;5453;50.852;7.102;2023-07-31T00:56:41;18.80;99.90
10802;DHT22;5453;50.852;7.102;2023-07-31T00:59:14;18.80;99.90
10802;DHT22;5453;50.852;7.102;2023-07-31T01:01:46;18.80;99.90
10802;DHT22;5453;50.852;7.102;2023-07-31T01:04:19;18.80;99.90
10802;DHT22;5453;50.852;7.102;2023-07-31T01:06:56;18.80;99.90
10802;DHT22;5453;50.852;7.102;2023-07-31T01:09:40;18.80;99.90
10802;DHT22;5453;50.852;7.102;2023-07-31T01:12:17;18.80;99.90
10802;DHT22;5453;50.852;7.102;2023-07-31T01:15:02;18.80;99.90
10802;DHT22;5453;50.852;7.102;2023-07-31T01:17:38;18.80;99.90
10802;DHT22;5453;50.852;7.102;2023-07-31T01:20:12;18.90;99.90
10802;DHT22;5453;50.852;7.102;2023-07-31T01:23:17;18.80;99.90
10802;DHT22;5453;50.852;7.102;2023-07-31T01:26:05;18.80;99.90
10802;DHT22;5453;50.852;7.102;2023-07-31T01:28:53;18.80;99.90
10802;DHT22;5453;50.852;7.102;2023-07-31T01:31:29;18.80;99.90
10802;DHT22;5453;50.852;7.102;2023-07-31T01:34:02;18.80;99.90
10802;DHT22;5453;50.852;7.102;2023-07-31T01:36:35;18.80;99.90
10802;DHT22;5453;50.852;7.102;2023-07-31T01:39:08;18.80;99.90
10802;DHT22;5453;50.852;7.102;2023-07-31T01:41:44;18.80;99.90
10802;DHT22;5453;50.852;7.102;2023-07-31T01:44:17;18.80;99.90
10802;DHT22;5453;50.852;7.102;2023-07-31T01:46:49;18.80;99.90
10802;DHT22;5453;50.852;7.102;2023-07-31T01:49:22;18.80;99.90
10802;DHT22;5453;50.852;7.102;2023-07-31T01:51:54;18.80;99.90
10802;DHT22;5453;50.852;7.102;2023-07-31T01:54:27;18.80;99.90
10802;DHT22;5453;50.852;7.102;2023-07-31T01:57:00;18.80;99.90
10802;DHT22;5453;50.852;7.102;2023-07-31T01:59:33;18.80;99.90
10802;DHT22;5453;50.852;7.102;2023-07-31T02:02:06;18.80;99.90
10802;DHT22;5453;50.852;7.102;2023-07-31T02:04:38;18.80;99.90
10802;DHT22;5453;50.852;7.102;2023-07-31T02:07:13;18.80;99.90
10802;DHT22;5453;50.852;7.102;2023-07-31T02:09:45;18.80;99.90
10802;DHT22;5453;50.852;7.102;2023-07-31T02:12:20;18.80;99.90
10802;DHT22;5453;50.852;7.102;2023-07-31T02:14:52;18.80;99.90
10802;DHT22;5453;50.852;7.102;2023-07-31T02:17:25;18.80;99.90
10802;DHT22;5453;50.852;7.102;2023-07-31T02:19:57;18.80;99.90
10802;DHT22;5453;50.852;7.102;2023-07-31T02:22:29;18.80;99.90
10802;DHT22;5453;50.852;7.102;2023-07-31T02:25:02;18.80;99.90
10802;DHT22;5453;50.852;7.102;2023-07-31T02:27:36;18.80;99.90
10802;DHT22;5453;50.852;7.102;2023-07-31T02:30:09;18.80;99.90
10802;DHT22;5453;50.852;7.102;2023-07-31T02:32:42;18.80;99.90
10802;DHT22;5453;50.852;7.102;2023-07-31T02:35:15;18.80;99.90
10802;DHT22;5453;50.852;7.102;2023-07-31T02:37:52;18.70;99.90
10802;DHT22;5453;50.852;7.102;2023-07-31T02:40:24;18.80;99.90
10802;DHT22;5453;50.852;7.102;2023-07-31T02:42:58;18.80;99.90
10802;DHT22;5453;50.852;7.102;2023-07-31T02:45:31;18.80;99.90
10802;DHT22;5453;50.852;7.102;2023-07-31T02:48:03;18.80;99.90
10802;DHT22;5453;50.852;7.102;2023-07-31T02:50:36;18.80;99.90
10802;DHT22;5453;50.852;7.102;2023-07-31T02:53:08;18.80;99.90
10802;DHT22;5453;50.852;7.102;2023-07-31T02:55:44;18.80;99.90
10802;DHT22;5453;50.852;7.102;2023-07-31T02:58:17;18.80;99.90
10802;DHT22;5453;50.852;7.102;2023-07-31T03:00:50;18.80;99.90
10802;DHT22;5453;50.852;7.102;2023-07-31T03:03:22;18.80;99.90
10802;DHT22;5453;50.852;7.102;2023-07-31T03:05:54;18.80;99.90
10802;DHT22;5453;50.852;7.102;2023-07-31T03:08:28;18.80;99.90
10802;DHT22;5453;50.852;7.102;2023-07-31T03:11:01;18.80;99.90
10802;DHT22;5453;50.852;7.102;2023-07-31T03:13:34;18.80;99.90
10802;DHT22;5453;50.852;7.102;2023-07-31T03:16:07;18.80;99.90
10802;DHT22;5453;50.852;7.102;2023-07-31T03:18:39;18.80;99.90
10802;DHT22;5453;50.852;7.102;2023-07-31T03:21:12;18.80;99.90
10802;DHT22;5453;50.852;7.102;2023-07-31T03:23:49;18.80;99.90
10802;DHT22;5453;50.852;7.102;2023-07-31T03:26:21;18.80;99.90
10802;DHT22;5453;50.852;7.102;2023-07-31T03:28:55;18.80;99.90
10802;DHT22;5453;50.852;7.102;2023-07-31T03:31:28;18.80;99.90
10802;DHT22;5453;50.852;7.102;2023-07-31T03:34:03;18.80;99.90
10802;DHT22;5453;50.852;7.102;2023-07-31T03:36:36;18.80;99.90
10802;DHT22;5453;50.852;7.102;2023-07-31T03:39:08;18.80;99.90
10802;DHT22;5453;50.852;7.102;2023-07-31T03:41:44;18.90;99.90
10802;DHT22;5453;50.852;7.102;2023-07-31T03:44:17;18.90;99.90
10802;DHT22;5453;50.852;7.102;2023-07-31T03:46:50;18.90;99.90
10802;DHT22;5453;50.852;7.102;2023-07-31T03:49:24;18.90;99.90
10802;DHT22;5453;50.852;7.102;2023-07-31T03:51:56;18.90;99.90
10802;DHT22;5453;50.852;7.102;2023-07-31T03:54:28;18.90;99.90
10802;DHT22;5453;50.852;7.102;2023-07-31T03:57:01;18.90;99.90
10802;DHT22;5453;50.852;7.102;2023-07-31T03:59:34;18.90;99.90
10802;DHT22;5453;50.852;7.102;2023-07-31T04:02:09;18.90;99.90
10802;DHT22;5453;50.852;7.102;2023-07-31T04:04:41;18.90;99.90
10802;DHT22;5453;50.852;7.102;2023-07-31T04:07:13;18.90;99.90
10802;DHT22;5453;50.852;7.102;2023-07-31T04:09:46;18.90;99.90
10802;DHT22;5453;50.852;7.102;2023-07-31T04:12:18;18.90;99.90
10802;DHT22;5453;50.852;7.102;2023-07-31T04:14:52;18.90;99.90
10802;DHT22;5453;50.852;7.102;2023-07-31T04:17:24;18.90;99.90
10802;DHT22;5453;50.852;7.102;2023-07-31T04:19:57;18.90;99.90
10802;DHT22;5453;50.852;7.102;2023-07-31T04:22:29;18.90;99.90
10802;DHT22;5453;50.852;7.102;2023-07-31T04:25:02;18.90;99.90
10802;DHT22;5453;50.852;7.102;2023-07-31T04:27:34;18.90;99.90
10802;DHT22;5453;50.852;7.102;2023-07-31T04:30:08;18.90;99.90
10802;DHT22;5453;50.852;7.102;2023-07-31T04:32:41;18.90;99.90
10802;DHT22;5453;50.852;7.102;2023-07-31T04:35:13;18.90;99.90
10802;DHT22;5453;50.852;7.102;2023-07-31T04:37:49;19.00;99.90
10802;DHT22;5453;50.852;7.102;2023-07-31T04:40:21;18.90;99.90
10802;DHT22;5453;50.852;7.102;2023-07-31T04:42:53;19.00;99.90
10802;DHT22;5453;50.852;7.102;2023-07-31T04:45:27;19.00;99.90
10802;DHT22;5453;50.852;7.102;2023-07-31T04:48:00;19.00;99.90
10802;DHT22;5453;50.852;7.102;2023-07-31T04:50:32;19.00;99.90
10802;DHT22;5453;50.852;7.102;2023-07-31T04:53:04;19.00;99.90
10802;DHT22;5453;50.852;7.102;2023-07-31T04:55:37;19.00;99.90
10802;DHT22;5453;50.852;7.102;2023-07-31T04:58:12;19.00;99.90
10802;DHT22;5453;50.852;7.102;2023-07-31T05:00:46;19.00;99.90
10802;DHT22;5453;50.852;7.102;2023-07-31T05:03:18;19.00;99.90
10802;DHT22;5453;50.852;7.102;2023-07-31T05:05:51;19.00;99.90
10802;DHT22;5453;50.852;7.102;2023-07-31T05:08:23;19.00;99.90
10802;DHT22;5453;50.852;7.102;2023-07-31T05:10:55;19.10;99.90
10802;DHT22;5453;50.852;7.102;2023-07-31T05:13:28;19.10;99.90
10802;DHT22;5453;50.852;7.102;2023-07-31T05:16:02;19.10;99.90
10802;DHT22;5453;50.852;7.102;2023-07-31T05:18:34;19.10;99.90
10802;DHT22;5453;50.852;7.102;2023-07-31T05:21:06;19.10;99.90
10802;DHT22;5453;50.852;7.102;2023-07-31T05:23:39;19.20;99.90
10802;DHT22;5453;50.852;7.102;2023-07-31T05:26:11;19.20;99.90
10802;DHT22;5453;50.852;7.102;2023-07-31T05:28:44;19.20;99.90
10802;DHT22;5453;50.852;7.102;2023-07-31T05:31:17;19.20;99.90
10802;DHT22;5453;50.852;7.102;2023-07-31T05:33:54;19.20;99.90
10802;DHT22;5453;50.852;7.102;2023-07-31T05:36:26;19.30;99.90
10802;DHT22;5453;50.852;7.102;2023-07-31T05:38:59;19.20;99.90
10802;DHT22;5453;50.852;7.102;2023-07-31T05:41:36;19.20;99.90
10802;DHT22;5453;50.852;7.102;2023-07-31T05:44:09;19.30;99.90
10802;DHT22;5453;50.852;7.102;2023-07-31T05:46:42;19.30;99.90
10802;DHT22;5453;50.852;7.102;2023-07-31T05:49:15;19.30;99.90
10802;DHT22;5453;50.852;7.102;2023-07-31T05:51:47;19.30;99.90
10802;DHT22;5453;50.852;7.102;2023-07-31T05:54:19;19.30;99.90
10802;DHT22;5453;50.852;7.102;2023-07-31T05:56:52;19.30;99.90
10802;DHT22;5453;50.852;7.102;2023-07-31T05:59:24;19.30;99.90
10802;DHT22;5453;50.852;7.102;2023-07-31T06:01:58;19.30;99.90
10802;DHT22;5453;50.852;7.102;2023-07-31T06:04:30;19.30;99.90
10802;DHT22;5453;50.852;7.102;2023-07-31T06:07:03;19.30;99.90
10802;DHT22;5453;50.852;7.102;2023-07-31T06:09:36;19.30;99.90
10802;DHT22;5453;50.852;7.102;2023-07-31T06:12:08;19.30;99.90
10802;DHT22;5453;50.852;7.102;2023-07-31T06:14:41;19.30;99.90
10802;DHT22;5453;50.852;7.102;2023-07-31T06:17:14;19.30;99.90
10802;DHT22;5453;50.852;7.102;2023-07-31T06:19:47;19.30;99.90
10802;DHT22;5453;50.852;7.102;2023-07-31T06:22:22;19.30;99.90
10802;DHT22;5453;50.852;7.102;2023-07-31T06:24:55;19.30;99.90
10802;DHT22;5453;50.852;7.102;2023-07-31T06:27:28;19.30;99.90
10802;DHT22;5453;50.852;7.102;2023-07-31T06:30:00;19.30;99.90
10802;DHT22;5453;50.852;7.102;2023-07-31T06:32:34;19.30;99.90
10802;DHT22;5453;50.852;7.102;2023-07-31T06:35:07;19.30;99.90
10802;DHT22;5453;50.852;7.102;2023-07-31T06:37:40;19.30;99.90
10802;DHT22;5453;50.852;7.102;2023-07-31T06:40:17;19.30;99.90
10802;DHT22;5453;50.852;7.102;2023-07-31T06:42:50;19.30;99.90
10802;DHT22;5453;50.852;7.102;2023-07-31T06:45:22;19.20;99.90
10802;DHT22;5453;50.852;7.102;2023-07-31T06:47:56;19.30;99.90
10802;DHT22;5453;50.852;7.102;2023-07-31T06:50:32;19.30;99.90
10802;DHT22;5453;50.852;7.102;2023-07-31T06:53:04;19.30;99.90
10802;DHT22;5453;50.852;7.102;2023-07-31T06:55:37;19.30;99.90
10802;DHT22;5453;50.852;7.102;2023-07-31T06:58:09;19.20;99.90
10802;DHT22;5453;50.852;7.102;2023-07-31T07:00:42;19.30;99.90
10802;DHT22;5453;50.852;7.102;2023-07-31T07:03:18;19.20;99.90
10802;DHT22;5453;50.852;7.102;2023-07-31T07:05:51;19.20;99.90
10802;DHT22;5453;50.852;7.102;2023-07-31T07:08:24;19.30;99.90
10802;DHT22;5453;50.852;7.102;2023-07-31T07:10:56;19.30;99.90
10802;DHT22;5453;50.852;7.102;2023-07-31T07:13:29;19.40;99.90
10802;DHT22;5453;50.852;7.102;2023-07-31T07:16:01;19.50;99.90
10802;DHT22;5453;50.852;7.102;2023-07-31T07:18:35;19.80;99.90
10802;DHT22;5453;50.852;7.102;2023-07-31T07:21:07;20.00;99.90
10802;DHT22;5453;50.852;7.102;2023-07-31T07:23:40;20.10;99.90
10802;DHT22;5453;50.852;7.102;2023-07-31T07:26:15;20.20;99.90
10802;DHT22;5453;50.852;7.102;2023-07-31T07:28:47;20.40;99.90
10802;DHT22;5453;50.852;7.102;2023-07-31T07:31:20;20.40;99.90
10802;DHT22;5453;50.852;7.102;2023-07-31T07:33:53;20.50;99.90
10802;DHT22;5453;50.852;7.102;2023-07-31T07:36:29;20.40;99.90
10802;DHT22;5453;50.852;7.102;2023-07-31T07:39:03;20.40;99.90
10802;DHT22;5453;50.852;7.102;2023-07-31T07:41:35;20.40;99.90
10802;DHT22;5453;50.852;7.102;2023-07-31T07:44:11;20.40;99.90
10802;DHT22;5453;50.852;7.102;2023-07-31T07:46:44;20.30;99.90
10802;DHT22;5453;50.852;7.102;2023-07-31T07:49:18;20.30;99.90
10802;DHT22;5453;50.852;7.102;2023-07-31T07:51:53;20.40;99.90
10802;DHT22;5453;50.852;7.102;2023-07-31T07:54:25;20.30;99.90
10802;DHT22;5453;50.852;7.102;2023-07-31T07:56:58;20.30;99.90
10802;DHT22;5453;50.852;7.102;2023-07-31T07:59:31;20.20;99.90
10802;DHT22;5453;50.852;7.102;2023-07-31T08:02:03;20.10;99.90
10802;DHT22;5453;50.852;7.102;2023-07-31T08:04:37;20.10;99.90
10802;DHT22;5453;50.852;7.102;2023-07-31T08:07:11;20.00;99.90
10802;DHT22;5453;50.852;7.102;2023-07-31T08:09:43;20.00;99.90
10802;DHT22;5453;50.852;7.102;2023-07-31T08:12:16;20.00;99.90
10802;DHT22;5453;50.852;7.102;2023-07-31T08:14:48;19.90;99.90
10802;DHT22;5453;50.852;7.102;2023-07-31T08:17:21;19.80;99.90
10802;DHT22;5453;50.852;7.102;2023-07-31T08:19:54;19.80;99.90
10802;DHT22;5453;50.852;7.102;2023-07-31T08:22:32;19.70;99.90
10802;DHT22;5453;50.852;7.102;2023-07-31T08:25:05;19.60;99.90
10802;DHT22;5453;50.852;7.102;2023-07-31T08:27:38;19.60;99.90
10802;DHT22;5453;50.852;7.102;2023-07-31T08:30:12;19.60;99.90
10802;DHT22;5453;50.852;7.102;2023-07-31T08:32:44;19.60;99.90
10802;DHT22;5453;50.852;7.102;2023-07-31T08:35:18;19.60;99.90
10802;DHT22;5453;50.852;7.102;2023-07-31T08:37:50;19.60;99.90
10802;DHT22;5453;50.852;7.102;2023-07-31T08:40:26;19.60;99.90
10802;DHT22;5453;50.852;7.102;2023-07-31T08:42:59;19.60;99.90
10802;DHT22;5453;50.852;7.102;2023-07-31T08:45:33;19.50;99.90
10802;DHT22;5453;50.852;7.102;2023-07-31T08:48:06;19.50;99.90
10802;DHT22;5453;50.852;7.102;2023-07-31T08:50:39;19.50;99.90
10802;DHT22;5453;50.852;7.102;2023-07-31T08:53:12;19.50;99.90
10802;DHT22;5453;50.852;7.102;2023-07-31T08:55:44;19.50;99.90
10802;DHT22;5453;50.852;7.102;2023-07-31T08:58:21;19.50;99.90
10802;DHT22;5453;50.852;7.102;2023-07-31T09:00:55;19.50;99.90
10802;DHT22;5453;50.852;7.102;2023-07-31T09:03:33;19.50;99.90
10802;DHT22;5453;50.852;7.102;2023-07-31T09:06:09;19.50;99.90
10802;DHT22;5453;50.852;7.102;2023-07-31T09:08:45;19.50;99.90
10802;DHT22;5453;50.852;7.102;2023-07-31T09:11:19;19.50;99.90
10802;DHT22;5453;50.852;7.102;2023-07-31T09:13:57;19.50;99.90
10802;DHT22;5453;50.852;7.102;2023-07-31T09:16:35;19.50;99.90
10802;DHT22;5453;50.852;7.102;2023-07-31T09:19:08;19.50;99.90
10802;DHT22;5453;50.852;7.102;2023-07-31T09:21:48;19.60;99.90
10802;DHT22;5453;50.852;7.102;2023-07-31T09:24:28;19.60;99.90
10802;DHT22;5453;50.852;7.102;2023-07-31T09:27:02;19.60;99.90
10802;DHT22;5453;50.852;7.102;2023-07-31T09:29:34;19.60;99.90
10802;DHT22;5453;50.852;7.102;2023-07-31T09:32:16;19.60;99.90
10802;DHT22;5453;50.852;7.102;2023-07-31T09:34:48;19.60;99.90
10802;DHT22;5453;50.852;7.102;2023-07-31T09:37:22;19.60;99.90
10802;DHT22;5453;50.852;7.102;2023-07-31T09:39:55;19.60;99.90
10802;DHT22;5453;50.852;7.102;2023-07-31T09:42:29;19.60;99.90
10802;DHT22;5453;50.852;7.102;2023-07-31T09:45:09;19.60;99.90
10802;DHT22;5453;50.852;7.102;2023-07-31T09:47:46;19.60;99.90
10802;DHT22;5453;50.852;7.102;2023-07-31T09:50:20;19.60;99.90
10802;DHT22;5453;50.852;7.102;2023-07-31T09:52:55;19.60;99.90
10802;DHT22;5453;50.852;7.102;2023-07-31T09:55:28;19.60;99.90
10802;DHT22;5453;50.852;7.102;2023-07-31T09:58:04;19.60;99.90
10802;DHT22;5453;50.852;7.102;2023-07-31T10:00:41;19.60;99.90
10802;DHT22;5453;50.852;7.102;2023-07-31T10:03:14;19.60;99.90
10802;DHT22;5453;50.852;7.102;2023-07-31T10:05:50;19.50;99.90
10802;DHT22;5453;50.852;7.102;2023-07-31T10:08:30;19.50;99.90
10802;DHT22;5453;50.852;7.102;2023-07-31T10:11:05;19.50;99.90
10802;DHT22;5453;50.852;7.102;2023-07-31T10:13:38;19.50;99.90
10802;DHT22;5453;50.852;7.102;2023-07-31T10:16:10;19.50;99.90
10802;DHT22;5453;50.852;7.102;2023-07-31T10:18:48;19.60;99.90
10802;DHT22;5453;50.852;7.102;2023-07-31T10:21:22;19.60;99.90
10802;DHT22;5453;50.852;7.102;2023-07-31T10:23:56;19.60;99.90
10802;DHT22;5453;50.852;7.102;2023-07-31T10:26:32;19.70;99.90
10802;DHT22;5453;50.852;7.102;2023-07-31T10:29:05;19.70;99.90
10802;DHT22;5453;50.852;7.102;2023-07-31T10:31:39;19.70;99.90
10802;DHT22;5453;50.852;7.102;2023-07-31T10:34:12;19.70;99.90
10802;DHT22;5453;50.852;7.102;2023-07-31T10:36:45;19.70;99.90
10802;DHT22;5453;50.852;7.102;2023-07-31T10:39:35;19.70;99.90
10802;DHT22;5453;50.852;7.102;2023-07-31T10:42:12;19.70;99.90
10802;DHT22;5453;50.852;7.102;2023-07-31T10:44:47;19.80;99.90
10802;DHT22;5453;50.852;7.102;2023-07-31T10:47:19;19.90;99.90
10802;DHT22;5453;50.852;7.102;2023-07-31T10:49:52;20.00;99.90
10802;DHT22;5453;50.852;7.102;2023-07-31T10:52:24;20.10;99.90
10802;DHT22;5453;50.852;7.102;2023-07-31T10:55:25;20.20;99.90
10802;DHT22;5453;50.852;7.102;2023-07-31T10:58:05;20.20;99.90
10802;DHT22;5453;50.852;7.102;2023-07-31T11:00:44;20.30;99.90
10802;DHT22;5453;50.852;7.102;2023-07-31T11:03:17;20.40;99.90
10802;DHT22;5453;50.852;7.102;2023-07-31T11:05:53;20.40;99.90
10802;DHT22;5453;50.852;7.102;2023-07-31T11:08:35;20.40;99.90
10802;DHT22;5453;50.852;7.102;2023-07-31T11:11:10;20.50;99.90
10802;DHT22;5453;50.852;7.102;2023-07-31T11:13:46;20.50;99.90
10802;DHT22;5453;50.852;7.102;2023-07-31T11:16:21;20.60;99.90
10802;DHT22;5453;50.852;7.102;2023-07-31T11:18:58;20.60;99.90
10802;DHT22;5453;50.852;7.102;2023-07-31T11:21:31;20.60;99.90
10802;DHT22;5453;50.852;7.102;2023-07-31T11:24:04;20.60;99.90
10802;DHT22;5453;50.852;7.102;2023-07-31T11:26:48;20.60;99.90
10802;DHT22;5453;50.852;7.102;2023-07-31T11:29:27;20.60;99.90
10802;DHT22;5453;50.852;7.102;2023-07-31T11:32:00;20.50;99.90
10802;DHT22;5453;50.852;7.102;2023-07-31T11:34:51;20.50;99.90
10802;DHT22;5453;50.852;7.102;2023-07-31T11:37:24;20.50;99.90
10802;DHT22;5453;50.852;7.102;2023-07-31T11:39:59;20.40;99.90
10802;DHT22;5453;50.852;7.102;2023-07-31T11:42:34;20.40;99.90
10802;DHT22;5453;50.852;7.102;2023-07-31T11:45:07;20.30;99.90
10802;DHT22;5453;50.852;7.102;2023-07-31T11:47:40;20.40;99.90
10802;DHT22;5453;50.852;7.102;2023-07-31T11:50:13;20.30;99.90
10802;DHT22;5453;50.852;7.102;2023-07-31T11:52:51;20.30;99.90
10802;DHT22;5453;50.852;7.102;2023-07-31T11:55:25;20.30;99.90
10802;DHT22;5453;50.852;7.102;2023-07-31T11:58:00;20.50;99.90
10802;DHT22;5453;50.852;7.102;2023-07-31T12:00:32;20.60;99.90
10802;DHT22;5453;50.852;7.102;2023-07-31T12:03:08;20.80;99.90
10802;DHT22;5453;50.852;7.102;2023-07-31T12:05:40;21.00;99.90
10802;DHT22;5453;50.852;7.102;2023-07-31T12:08:13;21.10;99.90
10802;DHT22;5453;50.852;7.102;2023-07-31T12:10:46;21.30;99.90
10802;DHT22;5453;50.852;7.102;2023-07-31T12:13:24;21.30;99.90
10802;DHT22;5453;50.852;7.102;2023-07-31T12:15:59;21.30;99.90
10802;DHT22;5453;50.852;7.102;2023-07-31T12:18:35;21.40;99.90
10802;DHT22;5453;50.852;7.102;2023-07-31T12:21:09;21.30;99.90
10802;DHT22;5453;50.852;7.102;2023-07-31T12:23:44;21.30;99.90
10802;DHT22;5453;50.852;7.102;2023-07-31T12:26:17;21.30;99.90
10802;DHT22;5453;50.852;7.102;2023-07-31T12:28:50;21.30;99.90
10802;DHT22;5453;50.852;7.102;2023-07-31T12:31:28;21.30;99.90
10802;DHT22;5453;50.852;7.102;2023-07-31T12:34:01;21.30;99.90
10802;DHT22;5453;50.852;7.102;2023-07-31T12:36:33;21.20;99.90
10802;DHT22;5453;50.852;7.102;2023-07-31T12:39:10;21.30;99.90
10802;DHT22;5453;50.852;7.102;2023-07-31T12:41:42;21.20;99.90
10802;DHT22;5453;50.852;7.102;2023-07-31T12:44:16;21.20;99.90
10802;DHT22;5453;50.852;7.102;2023-07-31T12:46:51;21.20;99.90
10802;DHT22;5453;50.852;7.102;2023-07-31T12:49:24;21.20;99.90
10802;DHT22;5453;50.852;7.102;2023-07-31T12:51:56;21.20;99.90
10802;DHT22;5453;50.852;7.102;2023-07-31T12:54:28;21.20;99.90
10802;DHT22;5453;50.852;7.102;2023-07-31T12:57:01;21.20;99.90
10802;DHT22;5453;50.852;7.102;2023-07-31T12:59:34;21.20;99.90
10802;DHT22;5453;50.852;7.102;2023-07-31T13:02:07;21.20;99.90
10802;DHT22;5453;50.852;7.102;2023-07-31T13:04:39;21.10;99.90
10802;DHT22;5453;50.852;7.102;2023-07-31T13:07:15;21.20;99.90
10802;DHT22;5453;50.852;7.102;2023-07-31T13:09:47;21.20;99.90
10802;DHT22;5453;50.852;7.102;2023-07-31T13:12:20;21.20;99.90
10802;DHT22;5453;50.852;7.102;2023-07-31T13:14:53;21.20;99.90
10802;DHT22;5453;50.852;7.102;2023-07-31T13:17:26;21.20;99.90
10802;DHT22;5453;50.852;7.102;2023-07-31T13:19:58;21.20;99.90
10802;DHT22;5453;50.852;7.102;2023-07-31T13:22:31;21.20;99.90
10802;DHT22;5453;50.852;7.102;2023-07-31T13:25:04;21.20;99.90
10802;DHT22;5453;50.852;7.102;2023-07-31T13:27:37;21.30;99.90
10802;DHT22;5453;50.852;7.102;2023-07-31T13:30:11;21.20;99.90
10802;DHT22;5453;50.852;7.102;2023-07-31T13:32:43;21.20;99.90
10802;DHT22;5453;50.852;7.102;2023-07-31T13:35:15;21.20;99.90
10802;DHT22;5453;50.852;7.102;2023-07-31T13:37:48;21.20;99.90
10802;DHT22;5453;50.852;7.102;2023-07-31T13:40:21;21.20;99.90
10802;DHT22;5453;50.852;7.102;2023-07-31T13:42:57;21.20;99.90
10802;DHT22;5453;50.852;7.102;2023-07-31T13:45:30;21.30;99.90
10802;DHT22;5453;50.852;7.102;2023-07-31T13:48:03;21.30;99.90
10802;DHT22;5453;50.852;7.102;2023-07-31T13:50:36;21.40;99.90
10802;DHT22;5453;50.852;7.102;2023-07-31T13:53:11;21.50;99.90
10802;DHT22;5453;50.852;7.102;2023-07-31T13:55:44;21.50;99.90
10802;DHT22;5453;50.852;7.102;2023-07-31T13:58:17;21.50;99.90
10802;DHT22;5453;50.852;7.102;2023-07-31T14:00:50;21.70;99.90
10802;DHT22;5453;50.852;7.102;2023-07-31T14:03:23;21.70;99.90
10802;DHT22;5453;50.852;7.102;2023-07-31T14:05:55;21.80;99.90
10802;DHT22;5453;50.852;7.102;2023-07-31T14:08:28;21.90;99.90
10802;DHT22;5453;50.852;7.102;2023-07-31T14:11:01;21.90;99.90
10802;DHT22;5453;50.852;7.102;2023-07-31T14:13:33;21.90;99.90
10802;DHT22;5453;50.852;7.102;2023-07-31T14:16:07;22.00;99.90
10802;DHT22;5453;50.852;7.102;2023-07-31T14:18:39;22.00;99.90
10802;DHT22;5453;50.852;7.102;2023-07-31T14:21:15;21.90;99.90
10802;DHT22;5453;50.852;7.102;2023-07-31T14:23:50;21.90;99.90
10802;DHT22;5453;50.852;7.102;2023-07-31T14:26:22;21.80;99.90
10802;DHT22;5453;50.852;7.102;2023-07-31T14:28:57;21.70;99.90
10802;DHT22;5453;50.852;7.102;2023-07-31T14:31:31;21.70;99.90
10802;DHT22;5453;50.852;7.102;2023-07-31T14:34:05;21.70;99.90
10802;DHT22;5453;50.852;7.102;2023-07-31T14:36:37;21.70;99.90
10802;DHT22;5453;50.852;7.102;2023-07-31T14:39:13;21.60;99.90
10802;DHT22;5453;50.852;7.102;2023-07-31T14:41:46;21.50;99.90
10802;DHT22;5453;50.852;7.102;2023-07-31T14:44:18;21.60;99.90
10802;DHT22;5453;50.852;7.102;2023-07-31T14:46:52;21.60;99.90
10802;DHT22;5453;50.852;7.102;2023-07-31T14:49:24;21.60;99.90
10802;DHT22;5453;50.852;7.102;2023-07-31T14:51:58;21.60;99.90
10802;DHT22;5453;50.852;7.102;2023-07-31T14:54:30;21.50;99.90
10802;DHT22;5453;50.852;7.102;2023-07-31T14:57:03;21.50;99.90
10802;DHT22;5453;50.852;7.102;2023-07-31T14:59:35;21.40;99.90
10802;DHT22;5453;50.852;7.102;2023-07-31T15:02:10;21.40;99.90
10802;DHT22;5453;50.852;7.102;2023-07-31T15:04:42;21.40;99.90
10802;DHT22;5453;50.852;7.102;2023-07-31T15:07:18;21.30;99.90
10802;DHT22;5453;50.852;7.102;2023-07-31T15:09:50;21.40;99.90
10802;DHT22;5453;50.852;7.102;2023-07-31T15:12:24;21.30;99.90
10802;DHT22;5453;50.852;7.102;2023-07-31T15:14:57;21.30;99.90
10802;DHT22;5453;50.852;7.102;2023-07-31T15:17:31;21.20;99.90
10802;DHT22;5453;50.852;7.102;2023-07-31T15:20:04;21.20;99.90
10802;DHT22;5453;50.852;7.102;2023-07-31T15:22:37;21.20;99.90
10802;DHT22;5453;50.852;7.102;2023-07-31T15:25:10;21.10;99.90
10802;DHT22;5453;50.852;7.102;2023-07-31T15:27:42;21.10;99.90
10802;DHT22;5453;50.852;7.102;2023-07-31T15:30:14;21.10;99.90
10802;DHT22;5453;50.852;7.102;2023-07-31T15:32:49;21.10;99.90
10802;DHT22;5453;50.852;7.102;2023-07-31T15:35:21;21.10;99.90
10802;DHT22;5453;50.852;7.102;2023-07-31T15:37:53;21.00;99.90
10802;DHT22;5453;50.852;7.102;2023-07-31T15:40:26;21.00;99.90
10802;DHT22;5453;50.852;7.102;2023-07-31T15:42:58;21.00;99.90
10802;DHT22;5453;50.852;7.102;2023-07-31T15:45:33;21.10;99.90
10802;DHT22;5453;50.852;7.102;2023-07-31T15:48:06;21.00;99.90
10802;DHT22;5453;50.852;7.102;2023-07-31T15:50:39;21.00;99.90
10802;DHT22;5453;50.852;7.102;2023-07-31T15:53:14;21.00;99.90
10802;DHT22;5453;50.852;7.102;2023-07-31T15:55:47;21.00;99.90
10802;DHT22;5453;50.852;7.102;2023-07-31T15:58:19;21.00;99.90
10802;DHT22;5453;50.852;7.102;2023-07-31T16:00:51;21.00;99.90
10802;DHT22;5453;50.852;7.102;2023-07-31T16:03:26;21.00;99.90
10802;DHT22;5453;50.852;7.102;2023-07-31T16:05:58;21.00;99.90
10802;DHT22;5453;50.852;7.102;2023-07-31T16:08:30;21.00;99.90
10802;DHT22;5453;50.852;7.102;2023-07-31T16:11:03;21.00;99.90
10802;DHT22;5453;50.852;7.102;2023-07-31T16:13:36;21.00;99.90
10802;DHT22;5453;50.852;7.102;2023-07-31T16:16:08;21.00;99.90
10802;DHT22;5453;50.852;7.102;2023-07-31T16:18:42;21.00;99.90
10802;DHT22;5453;50.852;7.102;2023-07-31T16:21:17;20.90;99.90
10802;DHT22;5453;50.852;7.102;2023-07-31T16:23:50;20.90;99.90
10802;DHT22;5453;50.852;7.102;2023-07-31T16:26:22;20.80;99.90